Time;durP1;ratioP1;P1;durP2;ratioP2;P2;SDS_P1;SDS_P2;PMS_P1;PMS_P2;Temp;Humidity;BMP_temperature;BMP_pressure;BME280_temperature;BME280_humidity;BME280_pressure;Samples;Min_cycle;Max_cycle;Signal;HPM_P1;HPM_P2
2023/04/21 00:00:12;;;;;;;;;;;;;;;13.08;56.51;96353.91;4220100;28;5663;-68
2023/04/21 00:02:16;;;;;;;;;;;;;;;13.08;56.33;96344.09;4220011;28;5659;-68
2023/04/21 00:04:19;;;;;;;;;;;;;;;13.08;56.37;96344.09;4219653;28;5679;-68
2023/04/21 00:06:22;;;;;;;;;;;;;;;13.08;56.40;96341.47;4219737;28;5655;-69
2023/04/21 00:08:26;;;;;;;;;;;;;;;13.11;56.05;96337.53;4219763;28;5667;-69
2023/04/21 00:10:29;;;;;;;;;;;;;;;13.10;56.25;96330.63;4219765;28;5880;-69
2023/04/21 00:12:33;;;;;;;;;;;;;;;13.07;56.46;96328.41;4219763;28;5664;-72
2023/04/21 00:14:36;;;;;;;;;;;;;;;13.05;56.49;96338.44;4218978;28;5675;-68
2023/04/21 00:16:39;;;;;;;;;;;;;;;13.06;56.50;96338.22;4218475;28;5619;-68
2023/04/21 00:18:42;;;;;;;;;;;;;;;13.08;56.13;96336.16;4220027;28;5747;-68
2023/04/21 00:20:45;;;;;;;;;;;;;;;13.11;56.26;96340.19;4219587;28;5375;-68
2023/04/21 00:22:49;;;;;;;;;;;;;;;13.13;56.17;96338.13;4219906;28;7799;-68
2023/04/21 00:24:52;;;;;;;;;;;;;;;13.13;56.02;96344.25;4219780;28;5850;-67
2023/04/21 00:26:55;;;;;;;;;;;;;;;13.15;55.99;96343.25;4219676;28;5683;-67
2023/04/21 00:28:59;;;;;;;;;;;;;;;13.15;56.10;96338.75;4219443;28;5829;-68
2023/04/21 00:31:01;;;;;;;;;;;;;;;13.15;56.27;96338.75;4219693;28;5890;-68
2023/04/21 00:33:04;;;;;;;;;;;;;;;13.15;56.20;96335.28;4219469;28;5659;-68
2023/04/21 00:35:08;;;;;;;;;;;;;;;13.15;56.22;96332.63;4219442;28;6363;-68
2023/04/21 00:37:11;;;;;;;;;;;;;;;13.13;56.15;96327.50;4219526;28;5758;-68
2023/04/21 00:39:14;;;;;;;;;;;;;;;13.14;56.25;96331.81;4219562;28;5659;-68
2023/04/21 00:41:16;;;;;;;;;;;;;;;13.15;55.73;96332.63;4219681;28;5743;-68
2023/04/21 00:43:19;;;;;;;;;;;;;;;13.16;56.10;96328.94;4219296;28;5659;-68
2023/04/21 00:45:24;;;;;;;;;;;;;;;13.15;56.08;96327.31;4219571;28;5778;-68
2023/04/21 00:47:26;;;;;;;;;;;;;;;13.14;55.82;96326.50;4219262;28;5659;-67
2023/04/21 00:49:29;;;;;;;;;;;;;;;13.12;55.80;96323.25;4219209;28;6347;-67
2023/04/21 00:51:34;;;;;;;;;;;;;;;13.10;56.17;96320.00;4218875;28;5655;-68
2023/04/21 00:53:36;;;;;;;;;;;;;;;13.09;56.32;96319.19;4219176;28;5757;-68
2023/04/21 00:55:40;;;;;;;;;;;;;;;13.09;56.27;96321.03;4219121;28;5675;-68
2023/04/21 00:57:43;;;;;;;;;;;;;;;13.08;56.19;96322.06;4219357;28;5687;-67
2023/04/21 00:59:48;;;;;;;;;;;;;;;13.07;56.06;96317.78;4218983;28;5687;-68
2023/04/21 01:01:52;;;;;;;;;;;;;;;13.05;56.03;96314.56;4219089;28;5687;-69
2023/04/21 01:03:58;;;;;;;;;;;;;;;13.04;56.27;96320.91;4218833;28;5667;-67
2023/04/21 01:06:01;;;;;;;;;;;;;;;13.03;56.20;96308.66;4218445;28;5663;-68
2023/04/21 01:08:06;;;;;;;;;;;;;;;13.03;56.24;96312.13;4218889;28;5695;-68
2023/04/21 01:10:09;;;;;;;;;;;;;;;13.00;56.39;96312.53;4218860;28;5660;-69
2023/04/21 01:12:13;;;;;;;;;;;;;;;13.02;56.07;96314.97;4218888;28;5792;-69
2023/04/21 01:14:15;;;;;;;;;;;;;;;13.03;56.21;96306.81;4218660;28;5664;-69
2023/04/21 01:16:19;;;;;;;;;;;;;;;13.04;56.56;96315.59;4218856;28;5667;-68
2023/04/21 01:18:23;;;;;;;;;;;;;;;13.03;56.40;96317.44;4218752;28;5813;-66
2023/04/21 01:20:28;;;;;;;;;;;;;;;13.02;56.13;96313.16;4218552;28;6367;-69
2023/04/21 01:22:32;;;;;;;;;;;;;;;13.03;56.25;96312.13;4216887;28;5850;-68
2023/04/21 01:24:37;;;;;;;;;;;;;;;13.03;56.65;96309.47;4209992;28;5767;-66
2023/04/21 01:26:40;;;;;;;;;;;;;;;13.04;56.43;96308.44;4216782;28;5609;-68
2023/04/21 01:28:43;;;;;;;;;;;;;;;13.00;56.50;96309.91;4217617;28;8493;-66
2023/04/21 01:30:45;;;;;;;;;;;;;;;13.00;56.71;96298.47;4213983;28;5681;-67
2023/04/21 01:32:48;;;;;;;;;;;;;;;12.98;56.60;96317.25;4218515;28;5898;-67
2023/04/21 01:34:52;;;;;;;;;;;;;;;12.99;56.63;96310.13;4218233;28;7712;-67
2023/04/21 01:36:55;;;;;;;;;;;;;;;13.00;56.16;96304.59;4218579;28;5683;-68
2023/04/21 01:38:59;;;;;;;;;;;;;;;13.00;56.58;96309.09;4217998;28;5090;-66
2023/04/21 01:41:02;;;;;;;;;;;;;;;13.01;56.25;96310.69;4218627;28;7679;-68
2023/04/21 01:43:06;;;;;;;;;;;;;;;13.04;56.30;96313.75;4218428;28;5667;-67
2023/04/21 01:45:10;;;;;;;;;;;;;;;13.03;56.68;96314.78;4218367;28;5671;-68
2023/04/21 01:47:13;;;;;;;;;;;;;;;13.02;56.47;96310.50;4218376;28;6383;-68
2023/04/21 01:49:16;;;;;;;;;;;;;;;13.02;56.66;96314.97;4218329;28;5686;-68
2023/04/21 01:51:19;;;;;;;;;;;;;;;13.01;56.59;96311.50;4217910;28;5726;-68
2023/04/21 01:53:22;;;;;;;;;;;;;;;13.03;56.65;96316.63;4218229;28;5845;-68
2023/04/21 01:55:26;;;;;;;;;;;;;;;13.03;56.64;96306.00;4217950;28;5077;-67
2023/04/21 01:57:29;;;;;;;;;;;;;;;12.99;56.56;96310.94;4218208;28;6431;-68
2023/04/21 01:59:32;;;;;;;;;;;;;;;12.96;56.46;96308.72;4218171;28;5671;-68
2023/04/21 02:01:35;;;;;;;;;;;;;;;12.96;56.75;96308.72;4207227;28;5680;-67
2023/04/21 02:03:38;;;;;;;;;;;;;;;12.93;56.64;96303.06;4218509;28;5833;-68
2023/04/21 02:05:41;;;;;;;;;;;;;;;12.90;56.33;96308.78;4217678;28;5679;-68
2023/04/21 02:07:44;;;;;;;;;;;;;;;12.88;56.42;96301.03;4217135;28;5653;-67
2023/04/21 02:09:46;;;;;;;;;;;;;;;12.86;56.49;96303.09;4217819;28;5726;-68
2023/04/21 02:11:51;;;;;;;;;;;;;;;12.91;56.46;96310.41;4212298;28;5693;-69
2023/04/21 02:13:54;;;;;;;;;;;;;;;12.92;56.71;96302.25;4215389;28;5863;-69
2023/04/21 02:15:57;;;;;;;;;;;;;;;12.91;56.42;96299.78;4210584;28;5679;-68
2023/04/21 02:18:15;;;;;;;;;;;;;;;12.89;56.67;96301.84;4215621;28;5791;-69
2023/04/21 02:20:18;;;;;;;;;;;;;;;12.92;56.42;96304.09;4217626;28;5775;-68
2023/04/21 02:22:21;;;;;;;;;;;;;;;12.90;56.65;96300.81;4216564;28;5864;-69
2023/04/21 02:24:25;;;;;;;;;;;;;;;12.90;56.55;96295.50;4216146;28;5671;-69
2023/04/21 02:26:27;;;;;;;;;;;;;;;12.87;56.35;96291.47;4215921;28;5679;-68
2023/04/21 02:28:32;;;;;;;;;;;;;;;12.89;56.39;96301.84;4215992;28;5762;-69
2023/04/21 02:30:35;;;;;;;;;;;;;;;12.92;56.61;96296.94;4216408;28;5659;-68
2023/04/21 02:32:37;;;;;;;;;;;;;;;12.91;56.48;96297.13;4213837;28;5967;-69
2023/04/21 02:34:41;;;;;;;;;;;;;;;12.89;56.85;96296.53;4215826;28;6415;-69
2023/04/21 02:36:44;;;;;;;;;;;;;;;12.89;56.69;96293.88;4217649;28;5731;-69
2023/04/21 02:38:47;;;;;;;;;;;;;;;12.90;56.76;96298.16;4217922;28;5081;-69
2023/04/21 02:40:50;;;;;;;;;;;;;;;12.91;56.73;96305.09;4217844;28;5738;-69
2023/04/21 02:42:53;;;;;;;;;;;;;;;12.91;56.69;96305.09;4213052;28;5750;-68
2023/04/21 02:44:57;;;;;;;;;;;;;;;12.90;56.63;96306.13;4216933;28;5671;-69
2023/04/21 02:47:00;;;;;;;;;;;;;;;12.89;56.54;96307.97;4216939;28;5680;-69
2023/04/21 02:49:03;;;;;;;;;;;;;;;12.90;56.45;96303.47;4217760;28;5682;-68
2023/04/21 02:51:10;;;;;;;;;;;;;;;12.90;56.56;96311.44;4217164;28;5739;-68
2023/04/21 02:53:13;;;;;;;;;;;;;;;12.91;56.64;96313.03;4217830;28;6034;-67
2023/04/21 02:55:16;;;;;;;;;;;;;;;12.89;56.62;96312.47;4217242;28;6897;-68
2023/04/21 02:57:19;;;;;;;;;;;;;;;12.87;56.33;96306.56;4213666;28;5671;-68
2023/04/21 02:59:21;;;;;;;;;;;;;;;12.85;56.56;96309.44;4215105;28;5672;-68
2023/04/21 03:01:26;;;;;;;;;;;;;;;12.81;56.57;96313.56;4214018;28;5652;-68
2023/04/21 03:03:29;;;;;;;;;;;;;;;12.79;56.67;96318.25;4217454;28;5687;-68
2023/04/21 03:05:32;;;;;;;;;;;;;;;12.80;56.56;96309.31;4216537;28;5671;-68
2023/04/21 03:07:35;;;;;;;;;;;;;;;12.81;56.53;96314.38;4214726;28;5779;-68
2023/04/21 03:09:38;;;;;;;;;;;;;;;12.80;56.61;96320.72;4217437;28;5664;-68
2023/04/21 03:11:41;;;;;;;;;;;;;;;12.79;56.51;96323.56;4217419;28;6604;-67
2023/04/21 03:13:44;;;;;;;;;;;;;;;12.79;56.69;96323.56;4211510;28;5679;-68
2023/04/21 03:15:47;;;;;;;;;;;;;;;12.81;56.71;96316.22;4216514;28;5664;-68
2023/04/21 03:17:51;;;;;;;;;;;;;;;12.83;56.71;96314.97;4216616;28;5804;-69
2023/04/21 03:19:54;;;;;;;;;;;;;;;12.85;56.58;96317.41;4215523;28;5679;-68
2023/04/21 03:21:57;;;;;;;;;;;;;;;12.88;56.40;96314.31;4217180;28;5692;-68
2023/04/21 03:24:00;;;;;;;;;;;;;;;12.89;56.66;96323.88;4217532;28;5758;-67
2023/04/21 03:26:06;;;;;;;;;;;;;;;12.86;56.83;96326.97;4217512;28;5680;-68
2023/04/21 03:28:09;;;;;;;;;;;;;;;12.87;56.45;96336.56;4213727;28;6648;-68
2023/04/21 03:30:12;;;;;;;;;;;;;;;12.83;56.61;96336.19;4219760;28;5675;-67
2023/04/21 03:32:15;;;;;;;;;;;;;;;12.79;56.90;96324.38;4218014;28;5675;-67
2023/04/21 03:34:20;;;;;;;;;;;;;;;12.76;56.72;96330.13;4220747;28;5671;-67
2023/04/21 03:36:23;;;;;;;;;;;;;;;12.76;56.63;96319.50;4220609;28;5773;-68
2023/04/21 03:38:25;;;;;;;;;;;;;;;12.75;56.81;96325.84;4220711;28;6343;-67
2023/04/21 03:40:28;;;;;;;;;;;;;;;12.74;56.89;96318.94;4220793;28;5663;-67
2023/04/21 03:42:31;;;;;;;;;;;;;;;12.70;56.74;96320.41;4220005;28;5745;-68
2023/04/21 03:44:35;;;;;;;;;;;;;;;12.70;56.84;96320.41;4219394;28;6470;-67
2023/04/21 03:46:37;;;;;;;;;;;;;;;12.70;56.69;96322.25;4219640;28;5679;-68
2023/04/21 03:48:40;;;;;;;;;;;;;;;12.72;56.85;96315.69;4220356;28;5679;-67
2023/04/21 03:50:44;;;;;;;;;;;;;;;12.73;56.75;96319.97;4220064;28;5852;-68
2023/04/21 03:52:47;;;;;;;;;;;;;;;12.73;56.62;96319.97;4220565;28;5667;-67
2023/04/21 03:54:50;;;;;;;;;;;;;;;12.71;56.40;96316.72;4217809;28;5835;-67
2023/04/21 03:56:53;;;;;;;;;;;;;;;12.67;56.93;96310.22;4219924;28;5766;-68
2023/04/21 03:58:56;;;;;;;;;;;;;;;12.66;56.75;96310.44;4214037;28;5676;-68
2023/04/21 04:00:59;;;;;;;;;;;;;;;12.64;56.62;96305.34;4217979;28;5671;-68
2023/04/21 04:03:02;;;;;;;;;;;;;;;12.62;56.77;96301.28;4217468;28;5762;-68
2023/04/21 04:05:06;;;;;;;;;;;;;;;12.62;56.80;96296.00;4218199;28;5613;-67
2023/04/21 04:07:10;;;;;;;;;;;;;;;12.60;56.85;96293.56;4219538;28;5759;-68
2023/04/21 04:09:13;;;;;;;;;;;;;;;12.58;56.85;96295.63;4220388;28;6532;-67
2023/04/21 04:11:16;;;;;;;;;;;;;;;12.59;56.98;96301.75;4219880;28;5695;-67
2023/04/21 04:13:20;;;;;;;;;;;;;;;12.59;57.15;96309.69;4217581;28;5841;-68
2023/04/21 04:15:23;;;;;;;;;;;;;;;12.62;57.13;96312.72;4214951;28;5833;-67
2023/04/21 04:17:26;;;;;;;;;;;;;;;12.63;56.81;96319.63;4219823;28;5659;-67
2023/04/21 04:19:31;;;;;;;;;;;;;;;12.63;56.73;96313.53;4218652;28;5717;-68
2023/04/21 04:21:34;;;;;;;;;;;;;;;12.64;56.88;96331.88;4202715;28;5771;-67
2023/04/21 04:23:39;;;;;;;;;;;;;;;12.67;56.90;96336.72;4203177;28;5843;-68
2023/04/21 04:25:42;;;;;;;;;;;;;;;12.66;56.82;96335.09;4212579;28;5678;-68
2023/04/21 04:27:45;;;;;;;;;;;;;;;12.66;57.00;96337.75;4219792;28;5683;-67
2023/04/21 04:29:48;;;;;;;;;;;;;;;12.70;57.02;96331.00;4215129;28;5082;-67
2023/04/21 04:31:51;;;;;;;;;;;;;;;12.71;57.03;96331.81;4219247;28;5675;-67
2023/04/21 04:33:54;;;;;;;;;;;;;;;12.72;56.83;96328.13;4219780;28;5897;-67
2023/04/21 04:35:58;;;;;;;;;;;;;;;12.70;56.85;96325.72;4219821;28;5663;-68
2023/04/21 04:38:03;;;;;;;;;;;;;;;12.71;56.82;96329.97;4217561;28;5798;-68
2023/04/21 04:40:11;;;;;;;;;;;;;;;12.70;57.00;96328.34;4218526;28;5663;-68
2023/04/21 04:42:13;;;;;;;;;;;;;;;12.73;57.02;96330.56;4217738;28;5774;-67
2023/04/21 04:44:17;;;;;;;;;;;;;;;12.75;56.96;96336.47;4214068;28;5798;-67
2023/04/21 04:46:20;;;;;;;;;;;;;;;12.79;56.84;96340.28;4214219;28;5886;-67
2023/04/21 04:48:24;;;;;;;;;;;;;;;12.79;57.14;96337.63;4219279;28;5793;-68
2023/04/21 04:50:27;;;;;;;;;;;;;;;12.79;56.99;96336.81;4218888;28;5622;-67
2023/04/21 04:52:30;;;;;;;;;;;;;;;12.76;56.93;96335.44;4218724;28;5782;-68
2023/04/21 04:54:33;;;;;;;;;;;;;;;12.76;57.23;96337.28;4219064;28;5679;-68
2023/04/21 04:56:37;;;;;;;;;;;;;;;12.77;57.08;96331.75;4217345;28;5890;-67
2023/04/21 04:58:40;;;;;;;;;;;;;;;12.78;57.17;96324.59;4219228;28;7196;-67
2023/04/21 05:00:42;;;;;;;;;;;;;;;12.78;56.94;96322.75;4215163;28;5888;-67
2023/04/21 05:02:45;;;;;;;;;;;;;;;12.80;57.01;96318.06;4218471;28;5662;-67
2023/04/21 05:04:48;;;;;;;;;;;;;;;12.78;57.15;96314.78;4219035;28;5857;-67
2023/04/21 05:06:51;;;;;;;;;;;;;;;12.77;56.86;96331.75;4217128;28;7699;-67
2023/04/21 05:08:54;;;;;;;;;;;;;;;12.81;56.83;96338.25;4204676;28;5660;-68
2023/04/21 05:10:57;;;;;;;;;;;;;;;12.82;57.13;96331.91;4206228;28;5692;-67
2023/04/21 05:13:02;;;;;;;;;;;;;;;12.84;56.58;96334.34;4210848;28;5687;-67
2023/04/21 05:15:05;;;;;;;;;;;;;;;12.85;56.58;96329.84;4212519;28;5664;-67
2023/04/21 05:17:08;;;;;;;;;;;;;;;12.85;56.59;96327.19;4212307;28;5842;-67
2023/04/21 05:19:11;;;;;;;;;;;;;;;12.87;56.47;96333.09;4212848;28;5762;-67
2023/04/21 05:21:14;;;;;;;;;;;;;;;12.89;56.82;96333.69;4218434;28;5743;-68
2023/04/21 05:23:16;;;;;;;;;;;;;;;12.91;56.50;96326.31;4216942;28;5659;-67
2023/04/21 05:25:19;;;;;;;;;;;;;;;12.93;56.26;96322.44;4218669;28;5671;-68
2023/04/21 05:27:22;;;;;;;;;;;;;;;12.93;56.22;96318.97;4211776;28;5114;-67
2023/04/21 05:29:26;;;;;;;;;;;;;;;12.93;56.68;96324.28;4216322;28;5679;-67
2023/04/21 05:31:29;;;;;;;;;;;;;;;12.93;56.59;96322.44;4214687;28;5691;-68
2023/04/21 05:33:32;;;;;;;;;;;;;;;12.93;56.45;96329.59;4214708;28;5672;-68
2023/04/21 05:35:35;;;;;;;;;;;;;;;12.94;56.39;96325.91;4213413;28;5870;-67
2023/04/21 05:37:39;;;;;;;;;;;;;;;12.91;56.32;96324.50;4216805;28;5679;-67
2023/04/21 05:39:42;;;;;;;;;;;;;;;12.87;56.17;96320.63;4203742;28;5709;-67
2023/04/21 05:41:45;;;;;;;;;;;;;;;12.85;56.22;96327.19;4201855;28;5688;-67
2023/04/21 05:43:48;;;;;;;;;;;;;;;12.85;56.52;96327.19;4207538;28;5686;-67
2023/04/21 05:45:52;;;;;;;;;;;;;;;12.83;56.51;96330.88;4214995;28;5850;-68
2023/04/21 05:47:55;;;;;;;;;;;;;;;12.83;56.67;96338.84;4218515;28;5828;-67
2023/04/21 05:49:58;;;;;;;;;;;;;;;12.79;56.64;96329.69;4217637;28;5696;-68
2023/04/21 05:52:01;;;;;;;;;;;;;;;12.77;56.41;96334.41;4216555;28;5675;-67
2023/04/21 05:54:04;;;;;;;;;;;;;;;12.77;56.67;96339.69;4217656;28;5679;-68
2023/04/21 05:56:09;;;;;;;;;;;;;;;12.78;56.57;96338.66;4215607;28;5818;-68
2023/04/21 05:58:11;;;;;;;;;;;;;;;12.80;56.48;96335.81;4213799;28;5676;-67
2023/04/21 06:00:16;;;;;;;;;;;;;;;12.81;56.39;96335.59;4216456;28;5853;-68
2023/04/21 06:02:20;;;;;;;;;;;;;;;12.78;56.76;96325.41;4213503;28;5664;-68
2023/04/21 06:04:23;;;;;;;;;;;;;;;12.76;56.42;96324.00;4217557;28;5809;-68
2023/04/21 06:06:27;;;;;;;;;;;;;;;12.80;56.74;96325.22;4217420;28;5659;-69
2023/04/21 06:08:30;;;;;;;;;;;;;;;12.81;56.64;96317.03;4213535;28;5806;-69
2023/04/21 06:10:33;;;;;;;;;;;;;;;12.84;56.41;96318.44;4218127;28;5679;-69
2023/04/21 06:12:36;;;;;;;;;;;;;;;12.93;56.53;96337.53;4209337;28;5687;-68
2023/04/21 06:14:38;;;;;;;;;;;;;;;12.94;56.21;96345.28;4216622;28;5675;-69
2023/04/21 06:16:41;;;;;;;;;;;;;;;12.95;56.46;96343.44;4216940;28;5947;-69
2023/04/21 06:18:45;;;;;;;;;;;;;;;12.93;56.51;96342.84;4218045;28;7030;-69
2023/04/21 06:20:51;;;;;;;;;;;;;;;12.94;56.52;96347.13;4217503;28;5754;-69
2023/04/21 06:22:54;;;;;;;;;;;;;;;12.95;56.45;96348.75;4217641;28;5670;-69
2023/04/21 06:24:57;;;;;;;;;;;;;;;12.99;56.44;96349.91;4210964;28;5711;-69
2023/04/21 06:27:02;;;;;;;;;;;;;;;13.00;56.20;96348.88;4216415;28;5687;-69
2023/04/21 06:29:05;;;;;;;;;;;;;;;13.02;56.41;96350.31;4215422;28;5693;-69
2023/04/21 06:31:08;;;;;;;;;;;;;;;13.04;56.11;96352.75;4213746;28;5701;-69
2023/04/21 06:33:11;;;;;;;;;;;;;;;13.01;56.24;96340.69;4217585;28;5642;-67
2023/04/21 06:35:16;;;;;;;;;;;;;;;13.04;56.05;96320.91;4217065;28;5649;-67
2023/04/21 06:37:19;;;;;;;;;;;;;;;13.04;56.13;96311.09;4216262;28;5741;-68
2023/04/21 06:39:21;;;;;;;;;;;;;;;13.01;56.25;96305.41;4222072;28;6465;-66
2023/04/21 06:41:25;;;;;;;;;;;;;;;12.97;56.05;96296.25;4217247;28;5667;-68
2023/04/21 06:43:27;;;;;;;;;;;;;;;13.00;56.23;96290.50;4212888;28;5782;-69
2023/04/21 06:45:30;;;;;;;;;;;;;;;13.02;56.03;96296.41;4213437;28;5129;-68
2023/04/21 06:47:33;;;;;;;;;;;;;;;13.04;56.12;96286.41;4216990;28;6379;-68
2023/04/21 06:49:36;;;;;;;;;;;;;;;13.13;55.96;96296.47;4200618;28;5696;-68
2023/04/21 06:51:40;;;;;;;;;;;;;;;13.20;56.05;96296.44;4216894;28;5670;-68
2023/04/21 06:53:43;;;;;;;;;;;;;;;13.27;55.82;96310.47;4217171;28;5747;-68
2023/04/21 06:55:46;;;;;;;;;;;;;;;13.29;55.42;96318.22;4217076;28;5820;-69
2023/04/21 06:57:49;;;;;;;;;;;;;;;13.27;55.49;96317.63;4216891;28;5674;-68
2023/04/21 06:59:52;;;;;;;;;;;;;;;13.25;55.94;96317.84;4215000;28;5683;-68
2023/04/21 07:01:55;;;;;;;;;;;;;;;13.28;55.79;96316.59;4214949;28;6100;-68
2023/04/21 07:03:57;;;;;;;;;;;;;;;13.35;55.42;96318.13;4216692;28;5662;-68
2023/04/21 07:06:01;;;;;;;;;;;;;;;13.44;55.46;96331.91;4214964;28;5672;-67
2023/04/21 07:08:06;;;;;;;;;;;;;;;13.53;55.58;96330.59;4214760;28;5748;-67
2023/04/21 07:10:09;;;;;;;;;;;;;;;13.54;55.36;96328.75;4216820;28;5698;-67
2023/04/21 07:12:12;;;;;;;;;;;;;;;13.51;55.48;96315.91;4217218;28;5747;-67
2023/04/21 07:14:15;;;;;;;;;;;;;;;13.51;55.29;96318.56;4215633;28;5667;-67
2023/04/21 07:16:18;;;;;;;;;;;;;;;13.58;55.45;96316.63;4216520;28;5675;-67
2023/04/21 07:18:21;;;;;;;;;;;;;;;13.54;55.21;96318.94;4215428;28;5671;-67
2023/04/21 07:20:24;;;;;;;;;;;;;;;13.52;55.24;96314.88;4212537;28;5663;-67
2023/04/21 07:22:27;;;;;;;;;;;;;;;13.52;55.37;96321.00;4215500;28;5679;-68
2023/04/21 07:24:33;;;;;;;;;;;;;;;13.57;55.28;96320.31;4216136;28;5802;-67
2023/04/21 07:26:36;;;;;;;;;;;;;;;13.62;55.07;96323.13;4217152;28;5666;-68
2023/04/21 07:28:39;;;;;;;;;;;;;;;13.71;55.28;96315.66;4216461;28;5814;-67
2023/04/21 07:30:42;;;;;;;;;;;;;;;13.75;54.86;96317.63;4216903;28;5671;-67
2023/04/21 07:32:45;;;;;;;;;;;;;;;13.77;54.82;96320.06;4210174;28;5719;-68
2023/04/21 07:34:49;;;;;;;;;;;;;;;13.80;54.95;96304.47;4216923;28;5663;-67
2023/04/21 07:36:52;;;;;;;;;;;;;;;13.82;54.88;96313.06;4216820;28;5687;-67
2023/04/21 07:38:55;;;;;;;;;;;;;;;13.84;54.86;96312.84;4216816;28;5668;-67
2023/04/21 07:41:00;;;;;;;;;;;;;;;13.82;54.85;96315.72;4216782;28;5679;-67
2023/04/21 07:43:03;;;;;;;;;;;;;;;13.80;54.54;96316.97;4215263;28;5815;-67
2023/04/21 07:45:06;;;;;;;;;;;;;;;13.84;54.65;96316.31;4216404;28;6243;-68
2023/04/21 07:47:09;;;;;;;;;;;;;;;13.86;54.58;96308.09;4216808;28;5695;-68
2023/04/21 07:49:12;;;;;;;;;;;;;;;13.85;54.74;96317.91;4216607;28;5671;-67
2023/04/21 07:51:17;;;;;;;;;;;;;;;13.85;54.44;96323.22;4216308;28;5642;-68
2023/04/21 07:53:19;;;;;;;;;;;;;;;13.83;54.67;96324.50;4217810;28;6389;-67
2023/04/21 07:55:22;;;;;;;;;;;;;;;13.83;54.39;96327.97;4216090;28;5762;-67
2023/04/21 07:57:27;;;;;;;;;;;;;;;13.90;54.59;96331.31;4215250;28;5805;-67
2023/04/21 07:59:30;;;;;;;;;;;;;;;13.93;54.28;96330.91;4214279;28;5753;-67
2023/04/21 08:01:33;;;;;;;;;;;;;;;13.94;54.50;96326.41;4211334;28;5671;-68
2023/04/21 08:03:36;;;;;;;;;;;;;;;13.95;54.11;96323.50;4216598;28;5867;-68
2023/04/21 08:05:39;;;;;;;;;;;;;;;13.95;54.18;96312.88;4216717;28;5810;-67
2023/04/21 08:07:43;;;;;;;;;;;;;;;13.97;54.38;96323.28;4216895;28;5680;-67
2023/04/21 08:09:46;;;;;;;;;;;;;;;14.01;54.12;96321.78;4216704;28;5675;-67
2023/04/21 08:11:49;;;;;;;;;;;;;;;14.02;54.17;96320.75;4216874;28;5704;-68
2023/04/21 08:13:53;;;;;;;;;;;;;;;14.01;54.18;96326.28;4216626;28;5774;-67
2023/04/21 08:15:56;;;;;;;;;;;;;;;14.00;53.85;96322.81;4218295;28;5700;-67
2023/04/21 08:17:59;;;;;;;;;;;;;;;13.99;53.82;96327.31;4219875;28;6360;-67
2023/04/21 08:20:02;;;;;;;;;;;;;;;14.00;53.89;96325.47;4219698;28;5671;-68
2023/04/21 08:22:05;;;;;;;;;;;;;;;14.03;53.87;96324.22;4219289;28;5806;-68
2023/04/21 08:24:08;;;;;;;;;;;;;;;14.07;54.00;96330.72;4219725;28;5747;-68
2023/04/21 08:26:12;;;;;;;;;;;;;;;14.08;53.69;96321.69;4219656;28;5678;-67
2023/04/21 08:28:15;;;;;;;;;;;;;;;14.13;53.76;96335.91;4219658;28;5663;-67
2023/04/21 08:30:20;;;;;;;;;;;;;;;14.15;53.63;96339.16;4219504;28;5679;-67
2023/04/21 08:32:25;;;;;;;;;;;;;;;14.19;53.84;96336.88;4219052;28;5778;-68
2023/04/21 08:34:28;;;;;;;;;;;;;;;14.20;53.71;96330.53;4219418;28;5668;-67
2023/04/21 08:36:31;;;;;;;;;;;;;;;14.15;53.50;96327.72;4219379;28;5663;-67
2023/04/21 08:38:35;;;;;;;;;;;;;;;14.15;53.46;96325.06;4202933;28;5704;-67
2023/04/21 08:40:39;;;;;;;;;;;;;;;14.10;53.73;96324.94;4211696;28;5796;-67
2023/04/21 08:42:42;;;;;;;;;;;;;;;14.06;53.73;96337.06;4219461;28;5947;-67
2023/04/21 08:44:45;;;;;;;;;;;;;;;14.05;53.67;96343.41;4219294;28;5706;-68
2023/04/21 08:46:50;;;;;;;;;;;;;;;14.05;53.42;96351.41;4219340;28;6344;-67
2023/04/21 08:48:53;;;;;;;;;;;;;;;14.04;53.41;96352.41;4219562;28;6526;-68
2023/04/21 08:50:58;;;;;;;;;;;;;;;14.05;53.61;96360.19;4218859;28;5708;-76
2023/04/21 08:53:01;;;;;;;;;;;;;;;14.11;53.61;96358.44;4219572;28;5667;-71
2023/04/21 08:55:06;;;;;;;;;;;;;;;14.14;53.58;96365.97;4219021;28;5691;-75
2023/04/21 08:57:09;;;;;;;;;;;;;;;14.10;53.30;96360.31;4219367;28;5663;-74
2023/04/21 08:59:17;;;;;;;;;;;;;;;14.08;53.41;96369.53;4219519;28;6540;-71
2023/04/21 09:01:20;;;;;;;;;;;;;;;14.06;53.50;96363.66;4219035;28;5922;-68
2023/04/21 09:03:26;;;;;;;;;;;;;;;14.02;53.54;96359.78;4219232;28;6032;-67
2023/04/21 09:05:31;;;;;;;;;;;;;;;14.02;53.62;96376.56;4219188;28;5675;-68
2023/04/21 09:07:38;;;;;;;;;;;;;;;13.98;53.23;96376.19;4211083;28;5655;-67
2023/04/21 09:09:53;;;;;;;;;;;;;;;14.01;53.49;96384.75;4218939;28;5667;-68
2023/04/21 09:11:57;;;;;;;;;;;;;;;14.03;53.45;96388.81;4219337;28;6347;-68
2023/04/21 09:14:00;;;;;;;;;;;;;;;14.00;53.36;96386.59;4219085;28;5668;-68
2023/04/21 09:16:14;;;;;;;;;;;;;;;13.95;53.34;96378.50;4218897;28;5762;-68
2023/04/21 09:18:19;;;;;;;;;;;;;;;13.95;53.22;96375.84;4218983;28;5719;-68
2023/04/21 09:20:25;;;;;;;;;;;;;;;13.97;53.46;96379.91;4218843;28;5766;-67
2023/04/21 09:22:29;;;;;;;;;;;;;;;13.97;53.17;96379.91;4216932;28;5701;-68
2023/04/21 09:24:32;;;;;;;;;;;;;;;13.95;53.08;96389.94;4212250;28;5849;-67
2023/04/21 09:26:34;;;;;;;;;;;;;;;13.93;53.35;96397.34;4216689;28;5667;-68
2023/04/21 09:28:43;;;;;;;;;;;;;;;13.90;53.41;96399.59;4216766;28;5679;-69
2023/04/21 09:30:47;;;;;;;;;;;;;;;13.87;53.31;96408.03;4217140;28;5823;-68
2023/04/21 09:32:50;;;;;;;;;;;;;;;13.81;53.35;96412.38;4217152;28;5638;-68
2023/04/21 09:34:59;;;;;;;;;;;;;;;13.78;53.33;96426.09;4215672;28;5887;-69
2023/04/21 09:37:04;;;;;;;;;;;;;;;13.72;53.12;96427.00;4216778;28;5671;-68
2023/04/21 09:39:07;;;;;;;;;;;;;;;13.67;53.25;96440.13;4217155;28;5738;-68
2023/04/21 09:41:17;;;;;;;;;;;;;;;13.67;53.28;96432.16;4215820;28;5931;-68
2023/04/21 09:43:20;;;;;;;;;;;;;;;13.68;53.45;96433.78;4216784;28;5736;-68
2023/04/21 09:45:26;;;;;;;;;;;;;;;13.66;53.19;96433.19;4215387;28;5838;-67
2023/04/21 09:47:43;;;;;;;;;;;;;;;13.64;53.27;96437.91;4208907;28;5763;-68
2023/04/21 09:49:51;;;;;;;;;;;;;;;13.61;53.62;96443.69;4216386;28;5751;-69
2023/04/21 09:51:55;;;;;;;;;;;;;;;13.59;53.31;96429.78;4216553;28;5782;-67
2023/04/21 09:54:21;;;;;;;;;;;;;;;13.56;53.72;96403.69;4216432;28;5834;-69
2023/04/21 09:56:31;;;;;;;;;;;;;;;13.55;53.60;96392.25;4216783;28;5862;-68
2023/04/21 09:58:41;;;;;;;;;;;;;;;13.56;53.42;96387.75;4215737;28;7761;-68
2023/04/21 10:00:44;;;;;;;;;;;;;;;13.54;53.72;96368.56;4213450;28;7161;-67
2023/04/21 10:02:49;;;;;;;;;;;;;;;13.55;53.58;96359.56;4216577;28;5754;-68
2023/04/21 10:04:53;;;;;;;;;;;;;;;13.57;53.57;96363.63;4210672;28;5882;-68
2023/04/21 10:06:56;;;;;;;;;;;;;;;13.62;53.85;96366.44;4216470;28;5871;-67
2023/04/21 10:09:01;;;;;;;;;;;;;;;13.62;53.86;96362.97;4215843;28;5721;-67
2023/04/21 10:11:06;;;;;;;;;;;;;;;13.66;53.79;96351.66;4216652;28;5691;-67
2023/04/21 10:13:15;;;;;;;;;;;;;;;13.76;54.17;96351.13;4215527;28;5703;-67
2023/04/21 10:15:32;;;;;;;;;;;;;;;13.90;54.11;96360.56;4211501;28;5065;-67
2023/04/21 10:17:36;;;;;;;;;;;;;;;13.99;53.70;96361.88;4209346;28;5677;-67
2023/04/21 10:19:49;;;;;;;;;;;;;;;14.06;53.75;96372.44;4216311;28;5775;-67
2023/04/21 10:21:56;;;;;;;;;;;;;;;14.06;53.86;96382.25;4216084;28;5902;-67
2023/04/21 10:23:59;;;;;;;;;;;;;;;14.01;54.22;96390.88;4216159;28;5797;-68
2023/04/21 10:26:05;;;;;;;;;;;;;;;13.99;54.38;96400.94;4216284;28;5671;-68
2023/04/21 10:28:09;;;;;;;;;;;;;;;13.94;54.21;96411.44;4214423;28;5093;-68
2023/04/21 10:30:19;;;;;;;;;;;;;;;13.85;54.24;96402.94;4211643;28;5746;-69
2023/04/21 10:32:39;;;;;;;;;;;;;;;13.83;54.66;96398.91;4213843;28;5758;-68
2023/04/21 10:34:43;;;;;;;;;;;;;;;13.82;54.72;96389.31;4208982;28;5785;-67
2023/04/21 10:37:24;;;;;;;;;;;;;;;13.85;54.59;96387.00;4215967;28;5746;-67
2023/04/21 10:39:30;;;;;;;;;;;;;;;13.86;54.57;96388.63;4215769;28;5672;-67
2023/04/21 10:41:34;;;;;;;;;;;;;;;13.83;54.54;96378.44;4215558;28;5672;-67
2023/04/21 10:43:45;;;;;;;;;;;;;;;13.81;54.61;96377.84;4204767;28;5726;-67
2023/04/21 10:45:51;;;;;;;;;;;;;;;13.82;54.71;96382.16;4210626;28;5705;-67
2023/04/21 10:47:54;;;;;;;;;;;;;;;13.82;54.97;96376.81;4215219;28;5663;-67
2023/04/21 10:49:58;;;;;;;;;;;;;;;13.81;54.86;96374.38;4213109;28;5777;-67
2023/04/21 10:52:08;;;;;;;;;;;;;;;13.80;54.99;96368.25;4212774;28;5802;-68
2023/04/21 10:54:14;;;;;;;;;;;;;;;13.82;54.91;96370.72;4215488;28;5782;-67